Time;durP1;ratioP1;P1;durP2;ratioP2;P2;SDS_P1;SDS_P2;PMS_P1;PMS_P2;Temp;Humidity;BMP_temperature;BMP_pressure;BME280_temperature;BME280_humidity;BME280_pressure;Samples;Min_cycle;Max_cycle;Signal;HPM_P1;HPM_P2
2022/01/13 00:02:11;;;;;;;54.17;16.45;;;4.70;99.90;;;;;;6281783;22;20023;-81
2022/01/13 00:04:36;;;;;;;67.53;15.63;;;4.70;99.90;;;;;;6281626;22;20042;-82
2022/01/13 00:07:02;;;;;;;54.38;13.43;;;4.70;99.90;;;;;;6281610;22;20442;-82
2022/01/13 00:09:28;;;;;;;43.13;14.25;;;4.70;99.90;;;;;;6281679;22;20020;-82
2022/01/13 00:11:56;;;;;;;56.28;13.95;;;4.80;99.90;;;;;;6281668;22;20018;-82
2022/01/13 00:22:01;;;;;;;49.08;13.60;;;4.80;99.90;;;;;;6308875;22;20446;-81
2022/01/13 00:24:27;;;;;;;51.72;13.98;;;4.90;99.90;;;;;;6309524;22;20015;-81
2022/01/13 00:26:54;;;;;;;67.80;13.90;;;4.80;99.90;;;;;;6281491;22;20381;-79
2022/01/13 00:29:26;;;;;;;48.05;15.10;;;4.80;99.90;;;;;;6309852;22;20026;-79
2022/01/13 00:31:52;;;;;;;34.80;12.57;;;4.90;99.90;;;;;;6308806;22;20343;-80
2022/01/13 00:34:18;;;;;;;51.00;14.32;;;4.80;99.90;;;;;;6281379;22;20509;-81
2022/01/13 00:36:44;;;;;;;53.55;13.70;;;4.90;99.90;;;;;;6308999;22;20019;-79
2022/01/13 00:39:11;;;;;;;45.92;13.40;;;4.80;99.90;;;;;;6309029;22;20045;-78
2022/01/13 00:41:38;;;;;;;53.75;14.45;;;4.90;99.90;;;;;;6309021;22;20015;-80
2022/01/13 00:44:07;;;;;;;46.35;13.85;;;4.90;99.90;;;;;;6281323;22;20339;-81
2022/01/13 00:46:45;;;;;;;50.53;12.98;;;4.90;99.90;;;;;;6281293;22;20500;-81
2022/01/13 00:49:13;;;;;;;42.97;12.18;;;4.90;99.90;;;;;;6308592;22;20073;-80
2022/01/13 00:51:40;;;;;;;53.00;14.35;;;4.80;99.90;;;;;;6281222;22;20019;-80
2022/01/13 00:54:08;;;;;;;44.08;13.38;;;4.90;99.90;;;;;;6281514;22;20016;-80
2022/01/13 00:56:35;;;;;;;56.90;17.00;;;4.90;99.90;;;;;;6281015;22;20019;-80
2022/01/13 00:59:03;;;;;;;54.78;15.55;;;4.90;99.90;;;;;;6281053;22;20376;-80
2022/01/13 01:01:29;;;;;;;46.65;14.32;;;4.90;99.90;;;;;;6308422;22;20334;-80
2022/01/13 01:03:55;;;;;;;60.85;15.88;;;4.80;99.90;;;;;;6308816;22;20034;-80
2022/01/13 01:06:21;;;;;;;51.20;15.27;;;4.80;99.90;;;;;;6281065;22;20008;-81
2022/01/13 01:08:47;;;;;;;57.47;16.95;;;4.80;99.90;;;;;;6281104;22;20019;-81
2022/01/13 01:11:13;;;;;;;76.72;17.52;;;4.80;99.90;;;;;;6280993;22;20391;-81
2022/01/13 01:13:39;;;;;;;54.10;16.73;;;4.80;99.90;;;;;;6281032;22;20019;-80
2022/01/13 01:16:09;;;;;;;55.97;16.27;;;4.80;99.90;;;;;;6280949;22;20050;-81
2022/01/13 01:18:48;;;;;;;58.00;15.77;;;4.70;99.90;;;;;;6280976;22;20015;-81
2022/01/13 01:31:35;;;;;;;48.83;15.48;;;4.70;99.90;;;;;;6280873;22;20461;-81
2022/01/13 01:36:27;;;;;;;51.55;14.93;;;4.70;99.90;;;;;;6280747;22;20027;-81
2022/01/13 01:38:55;;;;;;;63.58;16.15;;;4.70;99.90;;;;;;6280924;22;20499;-81
2022/01/13 01:41:21;;;;;;;69.43;17.42;;;4.70;99.90;;;;;;6280890;22;20011;-81
2022/01/13 01:43:48;;;;;;;70.68;15.00;;;4.70;99.90;;;;;;6280731;22;20022;-81
2022/01/13 01:46:13;;;;;;;51.17;15.80;;;4.80;99.90;;;;;;6280666;22;20019;-82
2022/01/13 01:48:39;;;;;;;57.15;15.82;;;4.80;99.90;;;;;;6280798;22;20015;-81
2022/01/13 01:51:05;;;;;;;91.78;17.92;;;4.80;99.90;;;;;;6280822;22;20054;-80
2022/01/13 01:53:31;;;;;;;81.03;19.67;;;4.90;99.90;;;;;;6308360;22;20431;-82
2022/01/13 01:55:58;;;;;;;70.10;16.75;;;4.80;99.90;;;;;;6280563;22;20019;-82
2022/01/13 01:58:26;;;;;;;66.18;17.90;;;4.80;99.90;;;;;;6280628;22;20038;-82
2022/01/13 02:00:53;;;;;;;59.17;18.05;;;4.80;99.90;;;;;;6280546;22;20334;-81
2022/01/13 02:03:19;;;;;;;78.65;17.20;;;4.80;99.90;;;;;;6280635;22;20443;-81
2022/01/13 02:05:46;;;;;;;91.78;19.27;;;4.90;99.90;;;;;;6280672;22;20015;-81
2022/01/13 02:08:12;;;;;;;75.68;18.70;;;4.80;99.90;;;;;;6280321;22;20019;-81
2022/01/13 02:10:37;;;;;;;87.30;18.50;;;4.80;99.90;;;;;;6280555;22;20023;-82
2022/01/13 02:13:07;;;;;;;64.97;18.23;;;4.80;99.90;;;;;;6280498;22;20022;-81
2022/01/13 02:15:48;;;;;;;89.68;19.05;;;4.80;99.90;;;;;;6280464;22;20023;-81
2022/01/13 02:18:15;;;;;;;79.90;18.17;;;4.80;99.90;;;;;;6280586;22;20019;-81
2022/01/13 02:20:52;;;;;;;97.75;19.95;;;4.90;99.90;;;;;;6280544;22;20084;-80
2022/01/13 02:23:29;;;;;;;100.38;20.00;;;4.90;99.90;;;;;;6280437;22;20339;-81
2022/01/13 02:25:55;;;;;;;97.32;20.17;;;4.90;99.90;;;;;;6280500;22;20019;-81
2022/01/13 02:28:21;;;;;;;91.03;19.25;;;4.90;99.90;;;;;;6280612;22;20312;-79
2022/01/13 02:30:46;;;;;;;67.68;21.15;;;4.90;99.90;;;;;;6280538;22;20019;-79
2022/01/13 02:33:12;;;;;;;64.55;20.67;;;4.90;99.90;;;;;;6307815;22;20007;-80
2022/01/13 02:35:37;;;;;;;76.93;21.50;;;4.90;99.90;;;;;;6280433;22;20019;-79
2022/01/13 02:38:13;;;;;;;68.63;20.67;;;4.90;99.90;;;;;;6280514;22;20019;-79
2022/01/13 02:40:39;;;;;;;59.70;20.13;;;4.90;99.90;;;;;;6280472;22;20375;-79
2022/01/13 02:43:06;;;;;;;63.47;18.80;;;5.00;99.90;;;;;;6280354;22;20019;-80
2022/01/13 02:45:38;;;;;;;58.47;18.77;;;4.90;99.90;;;;;;6280536;22;20015;-80
2022/01/13 02:50:35;;;;;;;67.03;18.50;;;5.00;99.90;;;;;;6280127;22;20065;-81
2022/01/13 02:53:03;;;;;;;70.93;19.42;;;5.00;99.90;;;;;;6307684;22;20055;-81
2022/01/13 02:55:28;;;;;;;75.15;19.40;;;5.00;99.90;;;;;;6280347;22;20019;-81
2022/01/13 02:57:54;;;;;;;72.50;18.70;;;5.00;99.90;;;;;;6280355;22;20019;-81
2022/01/13 03:00:20;;;;;;;80.10;20.08;;;5.00;99.90;;;;;;6307689;22;20026;-82
2022/01/13 03:02:47;;;;;;;60.92;18.45;;;5.00;99.90;;;;;;6280298;22;20016;-82
2022/01/13 03:05:14;;;;;;;65.72;20.75;;;5.00;99.90;;;;;;6280269;22;20086;-82
2022/01/13 03:07:41;;;;;;;65.93;18.55;;;5.00;99.90;;;;;;6280202;22;20385;-82
2022/01/13 03:10:08;;;;;;;56.72;17.38;;;5.00;99.90;;;;;;6280655;22;20381;-82
2022/01/13 03:12:36;;;;;;;65.75;19.05;;;5.00;99.90;;;;;;6280366;22;20023;-82
2022/01/13 03:15:02;;;;;;;48.35;15.70;;;5.00;99.90;;;;;;6307554;22;20019;-82
2022/01/13 03:17:28;;;;;;;46.45;16.42;;;5.00;99.90;;;;;;6307877;22;20023;-82
2022/01/13 03:19:54;;;;;;;82.50;18.80;;;5.00;99.90;;;;;;6280374;22;20019;-82
2022/01/13 03:22:19;;;;;;;61.85;18.50;;;5.00;99.90;;;;;;6281955;22;20327;-82
2022/01/13 03:24:45;;;;;;;68.63;16.88;;;5.00;99.90;;;;;;6282276;22;20015;-82
2022/01/13 03:27:18;;;;;;;67.75;18.92;;;5.00;99.90;;;;;;6282103;22;20022;-82
2022/01/13 03:29:45;;;;;;;84.45;19.40;;;5.00;99.90;;;;;;6282009;22;20072;-82
2022/01/13 03:32:10;;;;;;;58.03;17.48;;;5.00;99.90;;;;;;6281963;22;20023;-82
2022/01/13 03:34:36;;;;;;;64.00;18.63;;;5.00;99.90;;;;;;6282028;22;20434;-82
2022/01/13 03:37:02;;;;;;;63.22;17.30;;;5.00;99.90;;;;;;6309540;22;20015;-82
2022/01/13 03:39:28;;;;;;;51.78;16.63;;;5.00;99.90;;;;;;6281952;22;20015;-81
2022/01/13 03:41:54;;;;;;;83.45;18.58;;;5.00;99.90;;;;;;6309574;22;20056;-81
2022/01/13 03:44:27;;;;;;;66.32;16.35;;;5.00;99.90;;;;;;6281942;22;20086;-82
2022/01/13 03:46:59;;;;;;;82.90;18.55;;;4.90;99.90;;;;;;6282125;22;20015;-82
2022/01/13 03:49:25;;;;;;;65.70;17.88;;;4.90;99.90;;;;;;6281640;22;20098;-81
2022/01/13 03:51:59;;;;;;;71.20;17.42;;;4.90;99.90;;;;;;6281966;22;20055;-81
2022/01/13 03:54:31;;;;;;;60.33;18.17;;;4.90;99.90;;;;;;6281858;22;20019;-82
2022/01/13 03:57:34;;;;;;;77.47;17.83;;;4.90;99.90;;;;;;6281741;22;20080;-82
2022/01/13 04:00:40;;;;;;;64.88;18.33;;;4.90;99.90;;;;;;6310074;22;20046;-82
2022/01/13 04:03:06;;;;;;;57.50;17.35;;;4.80;99.90;;;;;;6309491;22;20026;-82
2022/01/13 04:05:32;;;;;;;69.15;18.52;;;4.80;99.90;;;;;;6308963;22;20019;-79
2022/01/13 04:07:57;;;;;;;49.83;16.48;;;4.80;99.90;;;;;;6309345;22;20094;-79
2022/01/13 04:10:45;;;;;;;49.05;17.45;;;4.80;99.90;;;;;;6281601;22;20350;-79
2022/01/13 04:13:22;;;;;;;51.45;17.23;;;4.90;99.90;;;;;;6281651;22;20019;-81
2022/01/13 04:15:49;;;;;;;46.03;16.88;;;4.90;99.90;;;;;;6281448;22;20019;-81
2022/01/13 04:18:15;;;;;;;54.70;17.92;;;4.90;99.90;;;;;;6281496;22;20023;-81
2022/01/13 04:20:40;;;;;;;61.78;18.77;;;4.90;99.90;;;;;;6281555;22;20014;-81
2022/01/13 04:23:06;;;;;;;55.78;17.25;;;5.00;99.90;;;;;;6281578;22;20026;-81
2022/01/13 04:25:34;;;;;;;71.35;18.98;;;5.00;99.90;;;;;;6281959;22;20011;-81
2022/01/13 04:28:02;;;;;;;55.22;18.88;;;5.00;99.90;;;;;;6308742;22;20482;-80
2022/01/13 04:30:44;;;;;;;62.45;19.20;;;5.00;99.90;;;;;;6281801;22;20477;-81
2022/01/13 04:33:12;;;;;;;61.53;19.83;;;5.00;99.90;;;;;;6281306;22;20516;-81
2022/01/13 04:35:38;;;;;;;58.25;20.65;;;5.10;99.90;;;;;;6281226;22;20015;-81
2022/01/13 04:38:04;;;;;;;62.80;18.42;;;5.10;99.90;;;;;;6281382;22;20020;-81
2022/01/13 04:40:29;;;;;;;71.68;20.48;;;5.10;99.90;;;;;;6281436;22;20051;-82
2022/01/13 04:42:56;;;;;;;73.55;20.25;;;5.10;99.90;;;;;;6281651;22;20015;-82
2022/01/13 04:45:23;;;;;;;62.60;19.65;;;5.10;99.90;;;;;;6281311;22;20021;-82
2022/01/13 04:47:52;;;;;;;69.53;19.65;;;5.20;99.90;;;;;;6281291;22;20019;-82
2022/01/13 04:50:19;;;;;;;57.42;19.42;;;5.10;99.90;;;;;;6281095;22;20338;-82
2022/01/13 04:52:45;;;;;;;63.10;19.17;;;5.10;99.90;;;;;;6308513;22;20438;-81
2022/01/13 04:55:13;;;;;;;70.93;17.73;;;5.10;99.90;;;;;;6281038;22;20038;-81
2022/01/13 04:57:39;;;;;;;66.72;18.60;;;5.10;99.90;;;;;;6281093;22;20030;-81
2022/01/13 05:00:07;;;;;;;64.30;19.25;;;5.10;99.90;;;;;;6281214;22;20023;-81
2022/01/13 05:02:33;;;;;;;55.22;18.15;;;5.10;99.90;;;;;;6308345;22;20439;-81
2022/01/13 05:04:59;;;;;;;61.00;19.52;;;5.10;99.90;;;;;;6281132;22;20015;-82
2022/01/13 05:07:24;;;;;;;54.70;17.00;;;5.10;99.90;;;;;;6281052;22;20350;-82
2022/01/13 05:09:50;;;;;;;56.75;18.17;;;5.10;99.90;;;;;;6308675;22;20018;-82
2022/01/13 05:12:17;;;;;;;55.83;18.08;;;5.10;99.90;;;;;;6281068;22;20102;-80
2022/01/13 05:14:44;;;;;;;55.05;18.33;;;5.00;99.90;;;;;;6308260;22;20368;-81
2022/01/13 05:17:33;;;;;;;67.07;19.00;;;5.00;99.90;;;;;;6281034;22;20023;-82
2022/01/13 05:20:12;;;;;;;60.25;18.58;;;5.00;99.90;;;;;;6280784;22;20031;-82
2022/01/13 05:22:37;;;;;;;77.18;19.17;;;5.10;99.90;;;;;;6308620;22;20064;-80
2022/01/13 05:25:04;;;;;;;58.88;18.85;;;5.00;99.90;;;;;;6308512;22;20038;-79
2022/01/13 05:27:30;;;;;;;76.22;20.33;;;5.00;99.90;;;;;;6280857;22;20023;-81
2022/01/13 05:29:56;;;;;;;76.88;21.20;;;5.10;99.90;;;;;;6280912;22;20098;-80
2022/01/13 05:32:21;;;;;;;66.38;20.35;;;5.00;99.90;;;;;;6308470;22;20094;-79
2022/01/13 05:34:47;;;;;;;71.43;19.30;;;5.10;99.90;;;;;;6308131;22;20439;-79
2022/01/13 05:37:12;;;;;;;65.50;19.38;;;5.10;99.90;;;;;;6281219;22;20026;-79
2022/01/13 05:39:38;;;;;;;69.90;19.58;;;5.10;99.90;;;;;;6308485;22;20022;-79
2022/01/13 05:42:04;;;;;;;69.75;21.48;;;5.10;99.90;;;;;;6308450;22;20023;-79
2022/01/13 05:44:37;;;;;;;77.15;20.00;;;5.20;99.90;;;;;;6280365;22;20055;-79
2022/01/13 05:47:03;;;;;;;66.82;20.10;;;5.20;99.90;;;;;;6308344;22;20347;-79
2022/01/13 05:49:28;;;;;;;76.65;21.45;;;5.20;99.90;;;;;;6280528;22;20426;-80
2022/01/13 05:51:54;;;;;;;77.38;23.13;;;5.20;99.90;;;;;;6308472;22;20011;-79
2022/01/13 05:54:20;;;;;;;78.40;23.17;;;5.20;99.90;;;;;;6308432;22;20042;-79
2022/01/13 05:56:45;;;;;;;88.53;23.70;;;5.20;99.90;;;;;;6280624;22;20023;-79
2022/01/13 05:59:11;;;;;;;82.30;23.17;;;5.20;99.90;;;;;;6280755;22;20086;-79
2022/01/13 06:01:36;;;;;;;77.43;23.95;;;5.20;99.90;;;;;;6308052;22;20011;-79
2022/01/13 06:04:02;;;;;;;75.10;21.40;;;5.30;99.90;;;;;;6280761;22;20019;-79
2022/01/13 06:06:28;;;;;;;70.45;21.15;;;5.30;99.90;;;;;;6308366;22;20011;-79
2022/01/13 06:08:53;;;;;;;81.47;22.88;;;5.30;99.90;;;;;;6308331;22;20011;-79
2022/01/13 06:11:22;;;;;;;74.68;24.27;;;5.30;99.90;;;;;;6280696;22;20011;-79
2022/01/13 06:13:48;;;;;;;88.32;23.77;;;5.30;99.90;;;;;;6280628;22;20019;-79
2022/01/13 06:16:15;;;;;;;82.75;24.48;;;5.30;99.90;;;;;;6307723;22;20473;-79
2022/01/13 06:18:41;;;;;;;89.78;24.17;;;5.40;99.90;;;;;;6280511;22;20023;-79
2022/01/13 06:21:06;;;;;;;89.80;23.88;;;5.40;99.90;;;;;;6280652;22;20019;-79
2022/01/13 06:23:32;;;;;;;83.78;21.52;;;5.30;99.90;;;;;;6308203;22;20018;-79
2022/01/13 06:25:58;;;;;;;83.18;21.35;;;5.40;99.90;;;;;;6281171;22;20022;-79
2022/01/13 06:28:24;;;;;;;82.97;22.17;;;5.40;99.90;;;;;;6307795;22;20065;-79
2022/01/13 06:30:49;;;;;;;79.10;22.02;;;5.40;99.90;;;;;;6280575;22;20019;-79
2022/01/13 06:33:15;;;;;;;94.28;24.45;;;5.40;99.90;;;;;;6280534;22;20136;-79
2022/01/13 06:35:41;;;;;;;113.57;24.20;;;5.50;99.90;;;;;;6308545;22;20035;-79
2022/01/13 06:38:07;;;;;;;80.55;24.40;;;5.50;99.90;;;;;;6280603;22;20026;-79
2022/01/13 06:40:33;;;;;;;103.20;24.80;;;5.50;99.90;;;;;;6307735;22;20442;-79
2022/01/13 06:42:58;;;;;;;81.60;22.73;;;5.50;99.90;;;;;;6280472;22;20023;-79
2022/01/13 06:45:24;;;;;;;77.85;23.15;;;5.50;99.90;;;;;;6307877;22;20438;-79
2022/01/13 06:47:50;;;;;;;80.70;23.48;;;5.50;99.90;;;;;;6280476;22;20015;-79
2022/01/13 06:50:17;;;;;;;81.97;25.25;;;5.50;99.90;;;;;;6307560;22;20334;-79
2022/01/13 06:52:44;;;;;;;81.78;25.17;;;5.50;99.90;;;;;;6308106;22;20090;-79
2022/01/13 06:55:10;;;;;;;74.55;24.23;;;5.50;99.90;;;;;;6281045;22;20019;-79
2022/01/13 06:57:35;;;;;;;78.65;23.35;;;5.50;99.90;;;;;;6282483;22;20029;-79
2022/01/13 07:00:02;;;;;;;66.40;24.17;;;5.60;99.90;;;;;;6310058;22;20035;-79
2022/01/13 07:02:30;;;;;;;73.63;21.75;;;5.60;99.90;;;;;;6282300;22;20076;-79
2022/01/13 07:04:56;;;;;;;66.90;22.98;;;5.50;99.90;;;;;;6310031;22;20011;-79
2022/01/13 07:07:22;;;;;;;83.75;23.33;;;5.50;99.90;;;;;;6282265;22;20434;-79
2022/01/13 07:09:47;;;;;;;71.95;22.85;;;5.60;99.90;;;;;;6309837;22;20022;-79
2022/01/13 07:12:13;;;;;;;83.25;24.17;;;5.60;99.90;;;;;;6309922;22;20401;-79
2022/01/13 07:14:39;;;;;;;67.22;23.95;;;5.60;99.90;;;;;;6282395;22;20023;-79
2022/01/13 07:17:04;;;;;;;64.88;21.98;;;5.50;99.90;;;;;;6282011;22;20312;-79
2022/01/13 07:19:30;;;;;;;74.22;21.98;;;5.50;99.90;;;;;;6282218;22;20019;-79
2022/01/13 07:21:56;;;;;;;63.30;21.92;;;5.50;99.90;;;;;;6309458;22;20026;-79
2022/01/13 07:24:22;;;;;;;60.40;22.83;;;5.40;99.90;;;;;;6281847;22;20035;-79
2022/01/13 07:26:48;;;;;;;63.08;22.70;;;5.40;99.90;;;;;;6281869;22;20029;-79
2022/01/13 07:29:13;;;;;;;68.45;22.95;;;5.40;99.90;;;;;;6308704;22;20015;-79
2022/01/13 07:31:39;;;;;;;59.95;23.38;;;5.40;99.90;;;;;;6309275;22;20034;-78
2022/01/13 07:34:08;;;;;;;66.40;21.45;;;5.30;99.90;;;;;;6281938;22;20015;-79
2022/01/13 07:36:34;;;;;;;72.65;21.77;;;5.30;99.90;;;;;;6309513;22;20026;-79
2022/01/13 07:39:00;;;;;;;64.95;21.63;;;5.30;99.90;;;;;;6309243;22;20019;-79
2022/01/13 07:41:26;;;;;;;53.72;20.52;;;5.30;99.90;;;;;;6281924;22;20015;-79
2022/01/13 07:43:55;;;;;;;61.10;21.58;;;5.30;99.90;;;;;;6281756;22;20506;-79
2022/01/13 07:46:22;;;;;;;59.67;22.05;;;5.20;99.90;;;;;;6309174;22;20015;-79
2022/01/13 07:48:48;;;;;;;56.42;21.25;;;5.30;99.90;;;;;;6281817;22;20026;-79
2022/01/13 07:51:14;;;;;;;63.22;23.02;;;5.30;99.90;;;;;;6309114;22;20016;-79
2022/01/13 07:53:39;;;;;;;73.85;22.63;;;5.30;99.90;;;;;;6281760;22;20023;-79
2022/01/13 07:56:05;;;;;;;74.50;22.98;;;5.30;99.90;;;;;;6281608;22;20397;-79
2022/01/13 07:58:31;;;;;;;66.45;22.73;;;5.30;99.90;;;;;;6308924;22;20065;-79
2022/01/13 08:00:56;;;;;;;69.88;23.50;;;5.30;99.90;;;;;;6309273;22;20023;-79
2022/01/13 08:03:22;;;;;;;68.30;24.70;;;5.30;99.90;;;;;;6309236;22;20019;-79
2022/01/13 08:05:48;;;;;;;71.68;20.70;;;5.30;99.90;;;;;;6308841;22;20030;-79
2022/01/13 08:08:14;;;;;;;72.40;21.85;;;5.30;99.90;;;;;;6281150;22;20086;-79
2022/01/13 08:10:39;;;;;;;81.15;23.88;;;5.30;99.90;;;;;;6308847;22;20107;-79
2022/01/13 08:13:05;;;;;;;88.45;24.45;;;5.40;99.90;;;;;;6309260;22;20019;-79
2022/01/13 08:15:31;;;;;;;87.20;23.65;;;5.40;99.90;;;;;;6281390;22;20019;-79
2022/01/13 08:20:40;;;;;;;75.35;22.02;;;5.40;99.90;;;;;;6309142;22;20103;-79
2022/01/13 08:23:08;;;;;;;75.60;23.52;;;5.50;99.90;;;;;;6309176;22;20050;-79
2022/01/13 08:25:34;;;;;;;76.55;22.80;;;5.50;99.90;;;;;;6281227;22;20026;-79
2022/01/13 08:28:00;;;;;;;84.30;23.92;;;5.50;99.90;;;;;;6281350;22;20043;-79
2022/01/13 08:30:26;;;;;;;83.78;22.25;;;5.50;99.90;;;;;;6309058;22;20023;-79
2022/01/13 08:32:51;;;;;;;85.00;25.52;;;5.50;99.90;;;;;;6281281;22;20007;-79
2022/01/13 08:35:17;;;;;;;78.50;23.33;;;5.60;99.90;;;;;;6281125;22;20023;-79
2022/01/13 08:37:43;;;;;;;70.68;22.15;;;5.60;99.90;;;;;;6308709;22;20423;-79
2022/01/13 08:40:12;;;;;;;67.70;21.70;;;5.60;99.90;;;;;;6281242;22;20018;-78
2022/01/13 08:42:38;;;;;;;88.35;23.05;;;5.60;99.90;;;;;;6308569;22;20025;-79
2022/01/13 08:45:07;;;;;;;82.32;21.95;;;5.70;99.90;;;;;;6281206;22;20043;-79
2022/01/13 08:47:32;;;;;;;84.88;24.67;;;5.70;99.90;;;;;;6281142;22;20019;-79
2022/01/13 08:49:58;;;;;;;89.85;24.05;;;5.70;99.90;;;;;;6280874;22;20080;-79
2022/01/13 08:52:24;;;;;;;89.50;26.08;;;5.70;99.90;;;;;;6308738;22;20465;-78
2022/01/13 08:54:52;;;;;;;88.53;24.38;;;5.80;99.90;;;;;;6308467;22;20450;-78
2022/01/13 08:57:17;;;;;;;104.78;24.77;;;5.80;99.90;;;;;;6280979;22;20023;-80
2022/01/13 08:59:44;;;;;;;97.43;25.50;;;5.80;99.90;;;;;;6307627;22;20068;-77
2022/01/13 09:02:10;;;;;;;102.55;24.77;;;5.80;99.90;;;;;;6280658;22;20016;-78
2022/01/13 09:04:36;;;;;;;111.20;26.40;;;5.80;99.90;;;;;;6308102;22;20065;-78
2022/01/13 09:07:02;;;;;;;109.35;25.90;;;5.80;99.90;;;;;;6308454;22;20022;-78
2022/01/13 09:09:27;;;;;;;93.45;25.23;;;5.90;99.90;;;;;;6308036;22;20454;-78
2022/01/13 09:11:53;;;;;;;104.28;25.88;;;5.90;99.90;;;;;;6280590;22;20102;-78
2022/01/13 09:14:26;;;;;;;101.97;24.65;;;5.90;99.90;;;;;;6308341;22;20080;-77
2022/01/13 09:16:53;;;;;;;;;;;5.90;99.90;;;;;;6308716;22;20015;-78
2022/01/13 09:19:19;;;;;;;105.30;22.70;;;6.00;99.90;;;;;;6308360;22;19961;-78
2022/01/13 09:21:46;;;;;;;91.05;22.20;;;6.00;99.90;;;;;;6307970;22;20042;-78
2022/01/13 09:24:21;;;;;;;94.95;22.35;;;6.10;99.90;;;;;;6308127;22;20030;-78
2022/01/13 09:26:47;;;;;;;100.15;22.90;;;6.10;99.90;;;;;;6280586;22;20016;-80
2022/01/13 09:29:14;;;;;;;111.57;23.38;;;6.10;99.90;;;;;;6280660;22;20023;-78
2022/01/13 09:31:41;;;;;;;116.15;23.48;;;6.10;99.90;;;;;;6280345;22;20355;-79
2022/01/13 09:34:08;;;;;;;104.97;22.65;;;6.20;99.90;;;;;;6307855;22;20440;-78
2022/01/13 09:36:34;;;;;;;88.72;21.60;;;6.20;99.90;;;;;;6308001;22;20090;-78
2022/01/13 09:39:03;;;;;;;107.50;22.05;;;6.20;99.90;;;;;;6308050;22;20021;-78
2022/01/13 09:41:31;;;;;;;100.78;21.90;;;6.20;99.90;;;;;;6308146;22;20026;-78
2022/01/13 09:44:01;;;;;;;102.28;24.75;;;6.30;99.90;;;;;;6308092;22;20015;-78
2022/01/13 09:46:27;;;;;;;90.60;22.10;;;6.30;99.90;;;;;;6280534;22;20019;-81
2022/01/13 09:48:55;;;;;;;107.68;22.60;;;6.30;99.90;;;;;;6280385;22;20354;-80
2022/01/13 09:51:25;;;;;;;103.32;22.08;;;6.30;99.90;;;;;;6307458;22;20039;-80
2022/01/13 09:53:51;;;;;;;109.82;24.05;;;6.40;99.90;;;;;;6280354;22;20069;-79
2022/01/13 09:56:16;;;;;;;97.57;24.90;;;6.40;99.90;;;;;;6307876;22;20362;-79
2022/01/13 09:58:44;;;;;;;93.45;23.92;;;6.40;99.90;;;;;;6307999;22;20078;-79
2022/01/13 10:01:13;;;;;;;104.15;23.90;;;6.40;99.90;;;;;;6307676;22;20047;-79
2022/01/13 10:03:39;;;;;;;103.38;25.70;;;6.40;99.90;;;;;;6280184;22;20015;-83
2022/01/13 10:06:09;;;;;;;112.53;27.42;;;6.50;99.90;;;;;;6280270;22;20127;-83
2022/01/13 10:08:56;;;;;;;110.07;28.48;;;6.50;99.90;;;;;;6307950;22;20026;-80
2022/01/13 10:11:24;;;;;;;110.38;29.35;;;6.50;99.90;;;;;;6307958;22;20100;-78
2022/01/13 10:16:46;;;;;;;99.68;26.65;;;6.50;99.90;;;;;;6280130;22;20019;-82
2022/01/13 10:19:32;;;;;;;97.72;27.42;;;6.50;99.90;;;;;;6280247;22;20019;-85
2022/01/13 10:22:12;;;;;;;84.47;26.80;;;6.50;99.90;;;;;;6280331;22;20076;-84
2022/01/13 10:24:41;;;;;;;81.03;25.75;;;6.50;99.90;;;;;;6279568;22;20503;-85
2022/01/13 10:27:10;;;;;;;83.05;23.85;;;6.50;99.90;;;;;;6279760;22;20055;-86
2022/01/13 10:29:47;;;;;;;88.70;25.05;;;6.50;99.90;;;;;;6279937;22;20020;-85
2022/01/13 10:32:19;;;;;;;89.25;27.25;;;6.50;99.90;;;;;;6282329;22;20076;-89
2022/01/13 10:34:51;;;;;;;81.15;25.25;;;6.50;99.90;;;;;;6275673;22;20043;-86
2022/01/13 10:37:37;;;;;;;89.88;25.05;;;6.60;99.90;;;;;;6282154;22;20027;-80
2022/01/13 10:40:07;;;;;;;79.63;26.65;;;6.50;99.90;;;;;;6282159;22;20026;-84
2022/01/13 10:45:10;;;;;;;72.68;22.40;;;6.60;99.90;;;;;;6282069;22;20023;-83
2022/01/13 10:47:36;;;;;;;86.38;24.38;;;6.60;99.90;;;;;;6282045;22;20350;-83
2022/01/13 10:50:08;;;;;;;64.20;23.15;;;6.60;99.90;;;;;;6282216;22;20104;-83
2022/01/13 10:52:34;;;;;;;73.97;22.00;;;6.60;99.90;;;;;;6309502;22;20515;-83
2022/01/13 10:55:03;;;;;;;80.15;23.80;;;6.60;99.90;;;;;;6281896;22;20023;-83
2022/01/13 10:57:29;;;;;;;79.72;22.85;;;6.50;99.90;;;;;;6309891;22;20019;-81
2022/01/13 10:59:55;;;;;;;70.18;22.33;;;6.60;99.90;;;;;;6309538;22;20011;-80
2022/01/13 11:02:22;;;;;;;71.53;23.67;;;6.50;99.90;;;;;;6282391;22;20080;-80
2022/01/13 11:04:48;;;;;;;62.00;21.77;;;6.50;99.90;;;;;;6282525;22;20129;-78
2022/01/13 11:07:24;;;;;;;72.75;25.00;;;6.50;99.90;;;;;;6309283;22;20066;-77
2022/01/13 11:09:55;;;;;;;82.22;22.95;;;6.60;99.90;;;;;;6309653;22;20015;-76
2022/01/13 11:12:30;;;;;;;75.15;22.98;;;6.60;99.90;;;;;;6308225;22;20094;-77
2022/01/13 11:15:00;;;;;;;72.30;21.70;;;6.60;99.90;;;;;;6281779;22;20437;-76
2022/01/13 11:17:28;;;;;;;62.60;21.67;;;6.60;99.90;;;;;;6309300;22;20106;-77
2022/01/13 11:19:54;;;;;;;63.55;18.77;;;6.60;99.90;;;;;;6281651;22;20015;-76
2022/01/13 11:22:22;;;;;;;67.38;20.75;;;6.70;99.90;;;;;;6309142;22;20034;-77
2022/01/13 11:24:48;;;;;;;62.03;21.67;;;6.70;99.90;;;;;;6309044;22;20401;-77
2022/01/13 11:27:18;;;;;;;59.78;20.70;;;6.70;99.90;;;;;;6309283;22;20090;-77
2022/01/13 11:29:45;;;;;;;63.30;20.73;;;6.70;99.90;;;;;;6281381;22;20023;-77
2022/01/13 11:32:13;;;;;;;76.30;21.42;;;6.70;99.90;;;;;;6281320;22;20011;-77
2022/01/13 11:34:39;;;;;;;62.42;21.83;;;6.60;99.90;;;;;;6281467;22;20019;-77
2022/01/13 11:37:06;;;;;;;68.28;20.58;;;6.70;99.90;;;;;;6281568;22;20025;-77
2022/01/13 11:39:43;;;;;;;60.28;20.63;;;6.70;99.90;;;;;;6308641;22;20025;-77
2022/01/13 11:42:13;;;;;;;71.43;20.55;;;6.70;99.90;;;;;;6281639;22;20019;-77
2022/01/13 11:44:40;;;;;;;70.60;21.50;;;6.70;99.90;;;;;;6309442;22;20015;-77
2022/01/13 11:47:22;;;;;;;67.40;21.85;;;6.70;99.90;;;;;;6309042;22;20057;-77
2022/01/13 11:49:59;;;;;;;76.77;22.63;;;6.70;99.90;;;;;;6308856;22;20351;-77
2022/01/13 11:52:44;;;;;;;74.28;23.73;;;6.70;99.90;;;;;;6281522;22;20692;-78
2022/01/13 11:55:25;;;;;;;72.43;23.52;;;6.70;99.90;;;;;;6281378;22;20026;-77
2022/01/13 11:58:09;;;;;;;73.75;21.83;;;6.70;99.90;;;;;;6281164;22;20354;-77
2022/01/13 12:00:34;;;;;;;85.55;23.70;;;6.70;99.90;;;;;;6281621;22;20373;-77
2022/01/13 12:03:20;;;;;;;76.43;24.15;;;6.70;99.90;;;;;;6280928;22;20049;-77
2022/01/13 12:05:46;;;;;;;74.57;23.45;;;6.80;99.90;;;;;;6309004;22;20015;-78
2022/01/13 12:08:40;;;;;;;74.55;23.83;;;6.80;99.90;;;;;;6298175;22;20019;-77
2022/01/13 12:11:10;;;;;;;80.22;23.25;;;6.80;99.90;;;;;;6281116;22;20054;-77
2022/01/13 12:13:44;;;;;;;69.60;22.17;;;6.80;99.90;;;;;;6308581;22;20022;-78
2022/01/13 12:16:10;;;;;;;71.32;23.38;;;6.90;99.90;;;;;;6281183;22;20080;-78
2022/01/13 12:19:01;;;;;;;68.50;23.73;;;6.90;99.90;;;;;;6280838;22;20331;-78
2022/01/13 12:21:35;;;;;;;62.97;23.30;;;6.90;99.90;;;;;;6308329;22;20393;-78
2022/01/13 12:24:05;;;;;;;56.10;21.30;;;7.00;99.90;;;;;;6308690;22;20019;-77
2022/01/13 12:26:31;;;;;;;54.35;21.02;;;7.00;99.90;;;;;;6281298;22;20026;-78
2022/01/13 12:29:14;;;;;;;57.38;22.60;;;7.10;99.90;;;;;;6308530;22;20015;-77
2022/01/13 12:31:49;;;;;;;;;;;7.10;99.90;;;;;;6281602;22;20030;-78
2022/01/13 12:34:36;;;;;;;61.35;21.60;;;7.10;99.90;;;;;;6281147;22;19922;-78
2022/01/13 12:37:13;;;;;;;55.30;21.27;;;7.10;99.90;;;;;;6287068;22;20049;-78
2022/01/13 12:39:58;;;;;;;55.50;20.45;;;7.20;99.90;;;;;;6308820;22;20015;-78
2022/01/13 12:42:27;;;;;;;64.15;21.90;;;7.20;99.90;;;;;;6280443;22;20019;-78
2022/01/13 12:47:39;;;;;;;54.08;20.40;;;7.20;99.90;;;;;;6280733;22;20034;-78
2022/01/13 12:50:38;;;;;;;53.08;21.52;;;7.20;99.90;;;;;;6308248;22;20084;-79
2022/01/13 12:53:25;;;;;;;53.90;20.38;;;7.30;99.90;;;;;;6280359;22;20024;-79
2022/01/13 12:56:13;;;;;;;59.60;22.98;;;7.30;99.90;;;;;;6308573;22;20015;-78
2022/01/13 12:58:48;;;;;;;50.45;21.73;;;7.30;99.90;;;;;;6280621;22;20090;-77
2022/01/13 13:01:20;;;;;;;52.45;19.77;;;7.30;99.90;;;;;;6308106;22;20443;-77
2022/01/13 13:04:13;;;;;;;50.72;20.70;;;7.30;99.90;;;;;;6280419;22;20022;-79
2022/01/13 13:06:43;;;;;;;56.55;19.30;;;7.30;99.90;;;;;;6303020;22;20026;-79
2022/01/13 13:09:12;;;;;;;54.53;19.38;;;7.30;99.90;;;;;;6307639;22;20450;-79
2022/01/13 13:11:44;;;;;;;53.80;20.40;;;7.40;99.90;;;;;;6308142;22;20023;-78
2022/01/13 13:14:19;;;;;;;56.15;19.25;;;7.40;99.90;;;;;;6280366;22;20334;-79
2022/01/13 13:16:51;;;;;;;42.13;18.10;;;7.40;99.90;;;;;;6308209;22;20015;-78
2022/01/13 13:19:17;;;;;;;42.85;19.33;;;7.40;99.90;;;;;;6280745;22;20015;-79